RCMS weather

CLOSED Ilan Airfield
Ilan, Ilan County, Taiwan

Public forecast

Using degrees Celsius for public forecast. Weather courtesy of forecast.io.

METAR (pilot weather report)

Closest report is Taipei Songshan Airport, 23.1 nm (42.7 km) NNW. Retrieved 2019/05/21 04:30 UTC (20 minutes ago):

RCSS 210430Z 08013KT 040V110 9999 FEW025 SCT150 26/15 Q1012 NOSIG RMK A2989

TAF (pilot weather forecast)

Forecast is more than 12 hours old.

Closest forecast is Taipei Songshan Airport, 23.1 nm (42.7 km) NNW. Retrieved 2019/05/20 00:00 UTC (1 day ago):

TAF RCSS 202300Z 2100/2124 10012KT 9999 FEW016 BKN032 TEMPO 2102/2109 10018KT TEMPO 2119/2124 09007KT